Terminal Aerodrome Forecast
Issued by NWS Mt. Holly, NJ

Home | Current Version | Previous Version | Text Only | Print | Product List | Glossary On
Versions: 1 2 3 4 5 6 7 8 9 10 11 12 13 14 15 16 17 18 19
000
FTUS41 KPHI 252207 AAB
TAFABE
TAF AMD
KABE 252207Z 2522/2618 28010G18KT 6SM -TSRA BR OVC035CB
     FM252300 25012G20KT P6SM VCSH OVC045
     FM260100 28014G23KT P6SM SCT045=

USA.gov is the U.S. government's official web portal to all federal, state and local government web resources and services.